sensor_id;sensor_type;location;lat;lon;timestamp;P1;durP1;ratioP1;P2;durP2;ratioP2
79543;SDS011;68994;47.176;7.534;2023-08-20T00:00:39;10.18;;;5.72;;
79543;SDS011;68994;47.176;7.534;2023-08-20T00:03:09;9.52;;;5.50;;
79543;SDS011;68994;47.176;7.534;2023-08-20T00:05:38;7.68;;;5.20;;
79543;SDS011;68994;47.176;7.534;2023-08-20T00:08:05;7.45;;;5.70;;
79543;SDS011;68994;47.176;7.534;2023-08-20T00:10:32;11.15;;;5.88;;
79543;SDS011;68994;47.176;7.534;2023-08-20T00:12:59;8.68;;;5.30;;
79543;SDS011;68994;47.176;7.534;2023-08-20T00:15:26;10.50;;;5.70;;
79543;SDS011;68994;47.176;7.534;2023-08-20T00:17:54;10.82;;;5.95;;
79543;SDS011;68994;47.176;7.534;2023-08-20T00:20:21;11.32;;;6.05;;
79543;SDS011;68994;47.176;7.534;2023-08-20T00:22:49;8.52;;;6.00;;
79543;SDS011;68994;47.176;7.534;2023-08-20T00:25:17;7.78;;;5.53;;
79543;SDS011;68994;47.176;7.534;2023-08-20T00:27:44;8.13;;;5.28;;
79543;SDS011;68994;47.176;7.534;2023-08-20T00:30:11;8.98;;;5.97;;
79543;SDS011;68994;47.176;7.534;2023-08-20T00:32:39;8.60;;;6.00;;
79543;SDS011;68994;47.176;7.534;2023-08-20T00:35:07;8.43;;;5.53;;
79543;SDS011;68994;47.176;7.534;2023-08-20T00:37:34;7.15;;;5.50;;
79543;SDS011;68994;47.176;7.534;2023-08-20T00:40:01;8.88;;;5.78;;
79543;SDS011;68994;47.176;7.534;2023-08-20T00:42:30;8.88;;;6.00;;
79543;SDS011;68994;47.176;7.534;2023-08-20T00:44:56;8.52;;;6.88;;
79543;SDS011;68994;47.176;7.534;2023-08-20T00:47:23;8.95;;;6.57;;
79543;SDS011;68994;47.176;7.534;2023-08-20T00:49:50;11.27;;;7.13;;
79543;SDS011;68994;47.176;7.534;2023-08-20T00:52:19;8.50;;;6.63;;
79543;SDS011;68994;47.176;7.534;2023-08-20T00:54:47;11.20;;;7.20;;
79543;SDS011;68994;47.176;7.534;2023-08-20T00:57:14;12.13;;;7.82;;
79543;SDS011;68994;47.176;7.534;2023-08-20T00:59:43;12.15;;;7.68;;
79543;SDS011;68994;47.176;7.534;2023-08-20T01:02:12;9.40;;;7.20;;
79543;SDS011;68994;47.176;7.534;2023-08-20T01:04:39;11.35;;;7.45;;
79543;SDS011;68994;47.176;7.534;2023-08-20T01:07:08;13.48;;;7.68;;
79543;SDS011;68994;47.176;7.534;2023-08-20T01:09:43;10.05;;;7.72;;
79543;SDS011;68994;47.176;7.534;2023-08-20T01:12:17;14.23;;;7.25;;
79543;SDS011;68994;47.176;7.534;2023-08-20T01:14:45;9.30;;;7.07;;
79543;SDS011;68994;47.176;7.534;2023-08-20T01:17:12;9.75;;;6.50;;
79543;SDS011;68994;47.176;7.534;2023-08-20T01:19:39;11.02;;;8.02;;
79543;SDS011;68994;47.176;7.534;2023-08-20T01:22:11;11.05;;;7.40;;
79543;SDS011;68994;47.176;7.534;2023-08-20T01:24:53;18.00;;;7.50;;
79543;SDS011;68994;47.176;7.534;2023-08-20T01:27:33;8.55;;;7.20;;
79543;SDS011;68994;47.176;7.534;2023-08-20T01:30:09;12.70;;;7.35;;
79543;SDS011;68994;47.176;7.534;2023-08-20T01:32:36;8.32;;;6.85;;
79543;SDS011;68994;47.176;7.534;2023-08-20T01:35:07;11.70;;;7.10;;
79543;SDS011;68994;47.176;7.534;2023-08-20T01:37:35;10.93;;;6.65;;
79543;SDS011;68994;47.176;7.534;2023-08-20T01:40:02;10.15;;;7.00;;
79543;SDS011;68994;47.176;7.534;2023-08-20T01:42:29;8.77;;;7.10;;
79543;SDS011;68994;47.176;7.534;2023-08-20T01:44:56;12.27;;;6.97;;
79543;SDS011;68994;47.176;7.534;2023-08-20T01:47:24;9.43;;;6.30;;
79543;SDS011;68994;47.176;7.534;2023-08-20T01:49:51;8.77;;;6.10;;
79543;SDS011;68994;47.176;7.534;2023-08-20T01:52:17;9.18;;;6.35;;
79543;SDS011;68994;47.176;7.534;2023-08-20T01:54:44;10.65;;;7.05;;
79543;SDS011;68994;47.176;7.534;2023-08-20T01:57:11;11.40;;;6.50;;
79543;SDS011;68994;47.176;7.534;2023-08-20T01:59:37;10.90;;;7.00;;
79543;SDS011;68994;47.176;7.534;2023-08-20T02:02:04;8.48;;;6.15;;
79543;SDS011;68994;47.176;7.534;2023-08-20T02:04:32;10.02;;;6.63;;
79543;SDS011;68994;47.176;7.534;2023-08-20T02:06:59;14.48;;;7.22;;
79543;SDS011;68994;47.176;7.534;2023-08-20T02:09:26;12.93;;;6.72;;
79543;SDS011;68994;47.176;7.534;2023-08-20T02:11:53;10.65;;;6.28;;
79543;SDS011;68994;47.176;7.534;2023-08-20T02:14:19;10.20;;;7.45;;
79543;SDS011;68994;47.176;7.534;2023-08-20T02:16:46;10.65;;;7.30;;
79543;SDS011;68994;47.176;7.534;2023-08-20T02:19:14;10.98;;;6.88;;
79543;SDS011;68994;47.176;7.534;2023-08-20T02:21:42;8.63;;;6.65;;
79543;SDS011;68994;47.176;7.534;2023-08-20T02:24:10;9.15;;;6.00;;
79543;SDS011;68994;47.176;7.534;2023-08-20T02:26:36;9.70;;;6.57;;
79543;SDS011;68994;47.176;7.534;2023-08-20T02:29:03;9.15;;;6.93;;
79543;SDS011;68994;47.176;7.534;2023-08-20T02:31:30;10.02;;;6.82;;
79543;SDS011;68994;47.176;7.534;2023-08-20T02:33:57;12.63;;;6.85;;
79543;SDS011;68994;47.176;7.534;2023-08-20T02:36:24;12.80;;;6.43;;
79543;SDS011;68994;47.176;7.534;2023-08-20T02:38:52;10.68;;;6.70;;
79543;SDS011;68994;47.176;7.534;2023-08-20T02:41:19;9.75;;;7.35;;
79543;SDS011;68994;47.176;7.534;2023-08-20T02:43:45;9.52;;;7.15;;
79543;SDS011;68994;47.176;7.534;2023-08-20T02:46:12;9.25;;;6.07;;
79543;SDS011;68994;47.176;7.534;2023-08-20T02:48:39;11.98;;;6.65;;
79543;SDS011;68994;47.176;7.534;2023-08-20T02:51:05;10.75;;;6.63;;
79543;SDS011;68994;47.176;7.534;2023-08-20T02:53:32;8.30;;;6.55;;
79543;SDS011;68994;47.176;7.534;2023-08-20T02:56:00;9.00;;;5.90;;
79543;SDS011;68994;47.176;7.534;2023-08-20T02:58:28;18.58;;;7.95;;
79543;SDS011;68994;47.176;7.534;2023-08-20T03:00:55;9.05;;;6.65;;
79543;SDS011;68994;47.176;7.534;2023-08-20T03:03:22;10.27;;;6.47;;
79543;SDS011;68994;47.176;7.534;2023-08-20T03:05:49;11.73;;;6.00;;
79543;SDS011;68994;47.176;7.534;2023-08-20T03:08:16;10.85;;;7.35;;
79543;SDS011;68994;47.176;7.534;2023-08-20T03:10:42;9.48;;;6.40;;
79543;SDS011;68994;47.176;7.534;2023-08-20T03:13:10;10.15;;;6.55;;
79543;SDS011;68994;47.176;7.534;2023-08-20T03:15:37;10.13;;;6.60;;
79543;SDS011;68994;47.176;7.534;2023-08-20T03:18:04;11.48;;;7.30;;
79543;SDS011;68994;47.176;7.534;2023-08-20T03:20:32;9.10;;;6.28;;
79543;SDS011;68994;47.176;7.534;2023-08-20T03:25:26;9.80;;;6.72;;
79543;SDS011;68994;47.176;7.534;2023-08-20T03:27:52;9.20;;;6.00;;
79543;SDS011;68994;47.176;7.534;2023-08-20T03:30:20;9.50;;;6.70;;
79543;SDS011;68994;47.176;7.534;2023-08-20T03:32:47;9.38;;;6.55;;
79543;SDS011;68994;47.176;7.534;2023-08-20T03:35:14;9.00;;;6.30;;
79543;SDS011;68994;47.176;7.534;2023-08-20T03:37:41;9.98;;;6.35;;
79543;SDS011;68994;47.176;7.534;2023-08-20T03:40:08;10.15;;;6.00;;
79543;SDS011;68994;47.176;7.534;2023-08-20T03:42:35;11.20;;;7.20;;
79543;SDS011;68994;47.176;7.534;2023-08-20T03:45:01;10.75;;;6.03;;
79543;SDS011;68994;47.176;7.534;2023-08-20T03:47:30;9.00;;;6.13;;
79543;SDS011;68994;47.176;7.534;2023-08-20T03:49:56;6.93;;;6.20;;
79543;SDS011;68994;47.176;7.534;2023-08-20T03:52:23;9.68;;;7.10;;
79543;SDS011;68994;47.176;7.534;2023-08-20T03:54:50;7.82;;;6.03;;
79543;SDS011;68994;47.176;7.534;2023-08-20T03:57:16;10.07;;;6.60;;
79543;SDS011;68994;47.176;7.534;2023-08-20T03:59:43;8.45;;;5.57;;
79543;SDS011;68994;47.176;7.534;2023-08-20T04:02:11;14.30;;;6.53;;
79543;SDS011;68994;47.176;7.534;2023-08-20T04:04:39;11.02;;;6.47;;
79543;SDS011;68994;47.176;7.534;2023-08-20T04:07:06;9.23;;;6.13;;
79543;SDS011;68994;47.176;7.534;2023-08-20T04:09:32;10.23;;;6.30;;
79543;SDS011;68994;47.176;7.534;2023-08-20T04:12:01;9.30;;;5.22;;
79543;SDS011;68994;47.176;7.534;2023-08-20T04:14:28;9.73;;;5.72;;
79543;SDS011;68994;47.176;7.534;2023-08-20T04:16:54;10.05;;;5.88;;
79543;SDS011;68994;47.176;7.534;2023-08-20T04:19:21;8.38;;;6.30;;
79543;SDS011;68994;47.176;7.534;2023-08-20T04:21:49;9.40;;;5.60;;
79543;SDS011;68994;47.176;7.534;2023-08-20T04:24:16;7.20;;;5.85;;
79543;SDS011;68994;47.176;7.534;2023-08-20T04:26:43;9.93;;;6.82;;
79543;SDS011;68994;47.176;7.534;2023-08-20T04:29:10;10.77;;;7.13;;
79543;SDS011;68994;47.176;7.534;2023-08-20T04:31:36;9.88;;;5.95;;
79543;SDS011;68994;47.176;7.534;2023-08-20T04:34:03;8.10;;;6.13;;
79543;SDS011;68994;47.176;7.534;2023-08-20T04:36:30;8.07;;;5.95;;
79543;SDS011;68994;47.176;7.534;2023-08-20T04:38:58;9.68;;;7.20;;
79543;SDS011;68994;47.176;7.534;2023-08-20T04:41:24;10.02;;;5.95;;
79543;SDS011;68994;47.176;7.534;2023-08-20T04:43:51;10.35;;;6.95;;
79543;SDS011;68994;47.176;7.534;2023-08-20T04:46:18;8.63;;;6.88;;
79543;SDS011;68994;47.176;7.534;2023-08-20T04:48:45;8.70;;;6.15;;
79543;SDS011;68994;47.176;7.534;2023-08-20T04:51:12;11.63;;;7.20;;
79543;SDS011;68994;47.176;7.534;2023-08-20T04:53:39;8.68;;;5.80;;
79543;SDS011;68994;47.176;7.534;2023-08-20T04:56:07;9.18;;;6.15;;
79543;SDS011;68994;47.176;7.534;2023-08-20T04:58:33;8.93;;;7.38;;
79543;SDS011;68994;47.176;7.534;2023-08-20T05:01:00;8.52;;;6.80;;
79543;SDS011;68994;47.176;7.534;2023-08-20T05:03:27;9.13;;;6.18;;
79543;SDS011;68994;47.176;7.534;2023-08-20T05:05:54;6.82;;;5.57;;
79543;SDS011;68994;47.176;7.534;2023-08-20T05:08:20;8.60;;;6.05;;
79543;SDS011;68994;47.176;7.534;2023-08-20T05:10:49;9.02;;;6.25;;
79543;SDS011;68994;47.176;7.534;2023-08-20T05:13:17;10.02;;;6.40;;
79543;SDS011;68994;47.176;7.534;2023-08-20T05:15:46;8.75;;;5.78;;
79543;SDS011;68994;47.176;7.534;2023-08-20T05:18:12;7.68;;;5.70;;
79543;SDS011;68994;47.176;7.534;2023-08-20T05:20:39;7.78;;;5.95;;
79543;SDS011;68994;47.176;7.534;2023-08-20T05:23:06;8.88;;;6.25;;
79543;SDS011;68994;47.176;7.534;2023-08-20T05:25:33;7.72;;;5.28;;
79543;SDS011;68994;47.176;7.534;2023-08-20T05:27:59;10.00;;;6.28;;
79543;SDS011;68994;47.176;7.534;2023-08-20T05:30:28;10.02;;;7.05;;
79543;SDS011;68994;47.176;7.534;2023-08-20T05:32:54;9.30;;;6.75;;
79543;SDS011;68994;47.176;7.534;2023-08-20T05:35:21;8.52;;;6.80;;
79543;SDS011;68994;47.176;7.534;2023-08-20T05:37:48;8.82;;;5.97;;
79543;SDS011;68994;47.176;7.534;2023-08-20T05:40:14;10.43;;;6.43;;
79543;SDS011;68994;47.176;7.534;2023-08-20T05:42:42;9.10;;;6.53;;
79543;SDS011;68994;47.176;7.534;2023-08-20T05:45:09;8.80;;;6.22;;
79543;SDS011;68994;47.176;7.534;2023-08-20T05:47:37;9.02;;;6.20;;
79543;SDS011;68994;47.176;7.534;2023-08-20T05:50:04;11.52;;;5.85;;
79543;SDS011;68994;47.176;7.534;2023-08-20T05:54:57;8.43;;;6.28;;
79543;SDS011;68994;47.176;7.534;2023-08-20T05:57:24;8.75;;;5.95;;
79543;SDS011;68994;47.176;7.534;2023-08-20T05:59:51;8.40;;;6.22;;
79543;SDS011;68994;47.176;7.534;2023-08-20T06:02:18;11.73;;;6.35;;
79543;SDS011;68994;47.176;7.534;2023-08-20T06:04:46;7.07;;;5.50;;
79543;SDS011;68994;47.176;7.534;2023-08-20T06:07:12;7.00;;;5.50;;
79543;SDS011;68994;47.176;7.534;2023-08-20T06:09:39;14.98;;;6.93;;
79543;SDS011;68994;47.176;7.534;2023-08-20T06:12:06;8.23;;;6.20;;
79543;SDS011;68994;47.176;7.534;2023-08-20T06:14:33;10.52;;;6.47;;
79543;SDS011;68994;47.176;7.534;2023-08-20T06:17:00;8.43;;;6.53;;
79543;SDS011;68994;47.176;7.534;2023-08-20T06:21:55;10.20;;;6.45;;
79543;SDS011;68994;47.176;7.534;2023-08-20T06:24:22;8.98;;;6.20;;
79543;SDS011;68994;47.176;7.534;2023-08-20T06:26:49;9.25;;;6.25;;
79543;SDS011;68994;47.176;7.534;2023-08-20T06:29:15;10.10;;;7.07;;
79543;SDS011;68994;47.176;7.534;2023-08-20T06:31:42;10.85;;;7.05;;
79543;SDS011;68994;47.176;7.534;2023-08-20T06:34:09;10.13;;;6.85;;
79543;SDS011;68994;47.176;7.534;2023-08-20T06:36:35;8.52;;;5.85;;
79543;SDS011;68994;47.176;7.534;2023-08-20T06:39:07;12.18;;;7.30;;
79543;SDS011;68994;47.176;7.534;2023-08-20T06:41:36;9.27;;;6.68;;
79543;SDS011;68994;47.176;7.534;2023-08-20T06:44:02;8.57;;;6.53;;
79543;SDS011;68994;47.176;7.534;2023-08-20T06:46:30;9.25;;;6.07;;
79543;SDS011;68994;47.176;7.534;2023-08-20T06:48:56;10.30;;;5.78;;
79543;SDS011;68994;47.176;7.534;2023-08-20T06:51:23;8.77;;;6.40;;
79543;SDS011;68994;47.176;7.534;2023-08-20T06:53:50;7.45;;;5.72;;
79543;SDS011;68994;47.176;7.534;2023-08-20T06:56:18;10.30;;;6.03;;
79543;SDS011;68994;47.176;7.534;2023-08-20T06:58:45;9.30;;;6.05;;
79543;SDS011;68994;47.176;7.534;2023-08-20T07:01:12;11.32;;;6.10;;
79543;SDS011;68994;47.176;7.534;2023-08-20T07:03:39;8.82;;;6.28;;
79543;SDS011;68994;47.176;7.534;2023-08-20T07:06:07;9.15;;;6.40;;
79543;SDS011;68994;47.176;7.534;2023-08-20T07:11:01;9.80;;;6.15;;
79543;SDS011;68994;47.176;7.534;2023-08-20T07:13:29;14.50;;;6.22;;
79543;SDS011;68994;47.176;7.534;2023-08-20T07:15:56;10.57;;;6.22;;
79543;SDS011;68994;47.176;7.534;2023-08-20T07:18:23;9.43;;;7.00;;
79543;SDS011;68994;47.176;7.534;2023-08-20T07:20:49;9.77;;;6.32;;
79543;SDS011;68994;47.176;7.534;2023-08-20T07:23:16;16.52;;;6.88;;
79543;SDS011;68994;47.176;7.534;2023-08-20T07:25:43;11.43;;;6.70;;
79543;SDS011;68994;47.176;7.534;2023-08-20T07:28:10;10.75;;;6.57;;
79543;SDS011;68994;47.176;7.534;2023-08-20T07:30:38;9.85;;;6.72;;
79543;SDS011;68994;47.176;7.534;2023-08-20T07:33:08;10.52;;;7.15;;
79543;SDS011;68994;47.176;7.534;2023-08-20T07:35:34;9.23;;;6.47;;
79543;SDS011;68994;47.176;7.534;2023-08-20T07:38:01;9.05;;;6.07;;
79543;SDS011;68994;47.176;7.534;2023-08-20T07:40:28;8.43;;;6.50;;
79543;SDS011;68994;47.176;7.534;2023-08-20T07:42:55;10.30;;;6.80;;
79543;SDS011;68994;47.176;7.534;2023-08-20T07:45:22;8.38;;;6.78;;
79543;SDS011;68994;47.176;7.534;2023-08-20T07:47:50;9.27;;;7.15;;
79543;SDS011;68994;47.176;7.534;2023-08-20T07:50:17;9.77;;;7.10;;
79543;SDS011;68994;47.176;7.534;2023-08-20T07:52:44;10.80;;;8.00;;
79543;SDS011;68994;47.176;7.534;2023-08-20T07:55:10;12.15;;;7.13;;
79543;SDS011;68994;47.176;7.534;2023-08-20T07:57:37;11.25;;;7.85;;
79543;SDS011;68994;47.176;7.534;2023-08-20T08:00:04;15.63;;;8.15;;
79543;SDS011;68994;47.176;7.534;2023-08-20T08:02:31;16.65;;;9.50;;
79543;SDS011;68994;47.176;7.534;2023-08-20T08:05:00;14.35;;;9.07;;
79543;SDS011;68994;47.176;7.534;2023-08-20T08:07:27;12.95;;;8.55;;
79543;SDS011;68994;47.176;7.534;2023-08-20T08:09:54;10.95;;;8.10;;
79543;SDS011;68994;47.176;7.534;2023-08-20T08:12:20;11.20;;;8.73;;
79543;SDS011;68994;47.176;7.534;2023-08-20T08:14:47;14.07;;;8.25;;
79543;SDS011;68994;47.176;7.534;2023-08-20T08:17:14;11.30;;;7.47;;
79543;SDS011;68994;47.176;7.534;2023-08-20T08:19:40;12.32;;;6.97;;
79543;SDS011;68994;47.176;7.534;2023-08-20T08:22:09;12.30;;;7.32;;
79543;SDS011;68994;47.176;7.534;2023-08-20T08:24:35;11.38;;;7.30;;
79543;SDS011;68994;47.176;7.534;2023-08-20T08:27:02;12.68;;;7.53;;
79543;SDS011;68994;47.176;7.534;2023-08-20T08:29:29;12.50;;;7.40;;
79543;SDS011;68994;47.176;7.534;2023-08-20T08:31:55;9.27;;;6.97;;
79543;SDS011;68994;47.176;7.534;2023-08-20T08:34:22;11.07;;;6.97;;
79543;SDS011;68994;47.176;7.534;2023-08-20T08:36:49;9.73;;;7.05;;
79543;SDS011;68994;47.176;7.534;2023-08-20T08:39:17;7.68;;;6.38;;
79543;SDS011;68994;47.176;7.534;2023-08-20T08:41:44;16.45;;;6.82;;
79543;SDS011;68994;47.176;7.534;2023-08-20T08:44:15;11.20;;;6.93;;
79543;SDS011;68994;47.176;7.534;2023-08-20T08:49:09;8.52;;;6.68;;
79543;SDS011;68994;47.176;7.534;2023-08-20T08:51:36;8.48;;;5.97;;
79543;SDS011;68994;47.176;7.534;2023-08-20T08:54:03;9.98;;;6.93;;
79543;SDS011;68994;47.176;7.534;2023-08-20T08:56:32;8.95;;;6.03;;
79543;SDS011;68994;47.176;7.534;2023-08-20T08:58:58;9.35;;;6.47;;
79543;SDS011;68994;47.176;7.534;2023-08-20T09:01:25;9.10;;;6.38;;
79543;SDS011;68994;47.176;7.534;2023-08-20T09:03:52;8.45;;;5.68;;
79543;SDS011;68994;47.176;7.534;2023-08-20T09:06:19;9.60;;;6.78;;
79543;SDS011;68994;47.176;7.534;2023-08-20T09:08:45;9.80;;;6.25;;
79543;SDS011;68994;47.176;7.534;2023-08-20T09:11:12;7.50;;;6.22;;
79543;SDS011;68994;47.176;7.534;2023-08-20T09:13:41;8.30;;;6.25;;
79543;SDS011;68994;47.176;7.534;2023-08-20T09:16:09;8.32;;;6.68;;
79543;SDS011;68994;47.176;7.534;2023-08-20T09:18:39;10.65;;;6.25;;
79543;SDS011;68994;47.176;7.534;2023-08-20T09:21:07;8.98;;;6.22;;
79543;SDS011;68994;47.176;7.534;2023-08-20T09:23:34;8.43;;;6.40;;
79543;SDS011;68994;47.176;7.534;2023-08-20T09:26:01;10.25;;;6.22;;
79543;SDS011;68994;47.176;7.534;2023-08-20T09:28:29;9.00;;;6.50;;
79543;SDS011;68994;47.176;7.534;2023-08-20T09:31:07;9.23;;;6.10;;
79543;SDS011;68994;47.176;7.534;2023-08-20T09:33:34;7.10;;;5.63;;
79543;SDS011;68994;47.176;7.534;2023-08-20T09:36:02;10.27;;;6.45;;
79543;SDS011;68994;47.176;7.534;2023-08-20T09:38:29;9.55;;;5.80;;
79543;SDS011;68994;47.176;7.534;2023-08-20T09:41:02;7.45;;;5.60;;
79543;SDS011;68994;47.176;7.534;2023-08-20T09:43:30;9.68;;;6.13;;
79543;SDS011;68994;47.176;7.534;2023-08-20T09:45:59;9.27;;;6.10;;
79543;SDS011;68994;47.176;7.534;2023-08-20T09:48:32;8.70;;;5.25;;
79543;SDS011;68994;47.176;7.534;2023-08-20T09:51:01;9.68;;;5.32;;
79543;SDS011;68994;47.176;7.534;2023-08-20T09:53:33;9.55;;;6.32;;
79543;SDS011;68994;47.176;7.534;2023-08-20T09:56:03;10.82;;;6.82;;
79543;SDS011;68994;47.176;7.534;2023-08-20T09:58:35;10.25;;;6.18;;
79543;SDS011;68994;47.176;7.534;2023-08-20T10:01:03;8.07;;;5.95;;
79543;SDS011;68994;47.176;7.534;2023-08-20T10:03:32;10.77;;;5.95;;
79543;SDS011;68994;47.176;7.534;2023-08-20T10:05:59;9.00;;;5.80;;
79543;SDS011;68994;47.176;7.534;2023-08-20T10:08:27;11.13;;;7.00;;
79543;SDS011;68994;47.176;7.534;2023-08-20T10:10:54;10.48;;;6.25;;
79543;SDS011;68994;47.176;7.534;2023-08-20T10:13:21;8.13;;;6.15;;
79543;SDS011;68994;47.176;7.534;2023-08-20T10:15:48;9.63;;;5.70;;
79543;SDS011;68994;47.176;7.534;2023-08-20T10:18:18;9.35;;;5.85;;
79543;SDS011;68994;47.176;7.534;2023-08-20T10:20:47;11.23;;;5.85;;
79543;SDS011;68994;47.176;7.534;2023-08-20T10:23:17;9.15;;;5.80;;
79543;SDS011;68994;47.176;7.534;2023-08-20T10:25:48;8.15;;;5.47;;
79543;SDS011;68994;47.176;7.534;2023-08-20T10:28:19;6.82;;;5.40;;
79543;SDS011;68994;47.176;7.534;2023-08-20T10:31:03;10.27;;;6.40;;
79543;SDS011;68994;47.176;7.534;2023-08-20T10:33:31;9.30;;;6.72;;
79543;SDS011;68994;47.176;7.534;2023-08-20T10:35:59;10.40;;;6.18;;
79543;SDS011;68994;47.176;7.534;2023-08-20T10:38:35;13.65;;;6.70;;
79543;SDS011;68994;47.176;7.534;2023-08-20T10:41:03;10.77;;;7.35;;
79543;SDS011;68994;47.176;7.534;2023-08-20T10:43:33;10.80;;;6.93;;
79543;SDS011;68994;47.176;7.534;2023-08-20T10:46:08;11.30;;;6.63;;
79543;SDS011;68994;47.176;7.534;2023-08-20T10:48:41;12.88;;;7.03;;
79543;SDS011;68994;47.176;7.534;2023-08-20T10:51:10;11.93;;;7.05;;
79543;SDS011;68994;47.176;7.534;2023-08-20T10:53:39;8.68;;;6.70;;
79543;SDS011;68994;47.176;7.534;2023-08-20T10:56:07;11.93;;;7.18;;
79543;SDS011;68994;47.176;7.534;2023-08-20T10:58:34;9.68;;;6.60;;
79543;SDS011;68994;47.176;7.534;2023-08-20T11:01:14;12.05;;;6.57;;
79543;SDS011;68994;47.176;7.534;2023-08-20T11:03:42;8.18;;;6.00;;
79543;SDS011;68994;47.176;7.534;2023-08-20T11:06:12;9.00;;;6.20;;
79543;SDS011;68994;47.176;7.534;2023-08-20T11:08:38;12.95;;;6.80;;
79543;SDS011;68994;47.176;7.534;2023-08-20T11:11:05;9.73;;;6.88;;
79543;SDS011;68994;47.176;7.534;2023-08-20T11:13:33;9.98;;;6.00;;
79543;SDS011;68994;47.176;7.534;2023-08-20T11:16:01;6.90;;;5.82;;
79543;SDS011;68994;47.176;7.534;2023-08-20T11:18:29;9.35;;;6.22;;
79543;SDS011;68994;47.176;7.534;2023-08-20T11:20:58;7.28;;;5.57;;
79543;SDS011;68994;47.176;7.534;2023-08-20T11:23:27;12.00;;;6.57;;
79543;SDS011;68994;47.176;7.534;2023-08-20T11:25:54;7.85;;;5.72;;
79543;SDS011;68994;47.176;7.534;2023-08-20T11:28:21;6.53;;;5.72;;
79543;SDS011;68994;47.176;7.534;2023-08-20T11:30:48;7.35;;;6.15;;
79543;SDS011;68994;47.176;7.534;2023-08-20T11:33:16;11.57;;;6.68;;
79543;SDS011;68994;47.176;7.534;2023-08-20T11:35:42;11.52;;;6.32;;
79543;SDS011;68994;47.176;7.534;2023-08-20T11:38:09;9.45;;;6.28;;
79543;SDS011;68994;47.176;7.534;2023-08-20T11:40:38;8.77;;;6.82;;
79543;SDS011;68994;47.176;7.534;2023-08-20T11:43:04;9.60;;;6.57;;
79543;SDS011;68994;47.176;7.534;2023-08-20T11:45:32;10.05;;;6.53;;
79543;SDS011;68994;47.176;7.534;2023-08-20T11:47:59;8.13;;;5.68;;
79543;SDS011;68994;47.176;7.534;2023-08-20T11:50:26;11.63;;;6.78;;
79543;SDS011;68994;47.176;7.534;2023-08-20T11:52:53;12.07;;;6.15;;
79543;SDS011;68994;47.176;7.534;2023-08-20T11:55:23;14.40;;;6.38;;
79543;SDS011;68994;47.176;7.534;2023-08-20T11:57:52;7.28;;;5.30;;
79543;SDS011;68994;47.176;7.534;2023-08-20T12:00:25;8.23;;;5.45;;
79543;SDS011;68994;47.176;7.534;2023-08-20T12:02:53;8.25;;;5.72;;
79543;SDS011;68994;47.176;7.534;2023-08-20T12:05:20;7.78;;;5.63;;
79543;SDS011;68994;47.176;7.534;2023-08-20T12:07:54;8.23;;;5.85;;
79543;SDS011;68994;47.176;7.534;2023-08-20T12:10:22;10.45;;;5.78;;
79543;SDS011;68994;47.176;7.534;2023-08-20T12:12:49;8.13;;;5.72;;
79543;SDS011;68994;47.176;7.534;2023-08-20T12:15:18;7.80;;;5.40;;
79543;SDS011;68994;47.176;7.534;2023-08-20T12:17:54;7.07;;;6.25;;
79543;SDS011;68994;47.176;7.534;2023-08-20T12:20:26;9.25;;;5.72;;
79543;SDS011;68994;47.176;7.534;2023-08-20T12:22:58;10.60;;;5.82;;
79543;SDS011;68994;47.176;7.534;2023-08-20T12:25:25;9.38;;;6.13;;
79543;SDS011;68994;47.176;7.534;2023-08-20T12:27:53;9.05;;;6.03;;
79543;SDS011;68994;47.176;7.534;2023-08-20T12:30:21;8.73;;;5.53;;
79543;SDS011;68994;47.176;7.534;2023-08-20T12:32:48;6.90;;;5.13;;
79543;SDS011;68994;47.176;7.534;2023-08-20T12:35:14;6.47;;;4.97;;
79543;SDS011;68994;47.176;7.534;2023-08-20T12:37:41;7.80;;;5.47;;
79543;SDS011;68994;47.176;7.534;2023-08-20T12:40:08;6.15;;;5.32;;
79543;SDS011;68994;47.176;7.534;2023-08-20T12:42:37;7.75;;;5.30;;
79543;SDS011;68994;47.176;7.534;2023-08-20T12:45:06;6.85;;;6.15;;
79543;SDS011;68994;47.176;7.534;2023-08-20T12:47:33;8.23;;;5.45;;
79543;SDS011;68994;47.176;7.534;2023-08-20T12:50:00;6.70;;;5.45;;
79543;SDS011;68994;47.176;7.534;2023-08-20T12:52:28;7.80;;;5.78;;
79543;SDS011;68994;47.176;7.534;2023-08-20T12:54:54;7.53;;;5.32;;
79543;SDS011;68994;47.176;7.534;2023-08-20T12:57:21;7.82;;;5.90;;
79543;SDS011;68994;47.176;7.534;2023-08-20T12:59:48;6.70;;;5.57;;
79543;SDS011;68994;47.176;7.534;2023-08-20T13:02:17;7.53;;;5.35;;
79543;SDS011;68994;47.176;7.534;2023-08-20T13:04:44;10.40;;;5.57;;
79543;SDS011;68994;47.176;7.534;2023-08-20T13:07:12;10.55;;;4.65;;
79543;SDS011;68994;47.176;7.534;2023-08-20T13:09:39;11.60;;;5.97;;
79543;SDS011;68994;47.176;7.534;2023-08-20T13:12:07;15.10;;;5.65;;
79543;SDS011;68994;47.176;7.534;2023-08-20T13:14:37;7.68;;;5.72;;
79543;SDS011;68994;47.176;7.534;2023-08-20T13:17:06;9.20;;;4.95;;
79543;SDS011;68994;47.176;7.534;2023-08-20T13:19:34;8.43;;;5.22;;
79543;SDS011;68994;47.176;7.534;2023-08-20T13:22:01;9.48;;;6.28;;
79543;SDS011;68994;47.176;7.534;2023-08-20T13:26:54;9.68;;;5.45;;
79543;SDS011;68994;47.176;7.534;2023-08-20T13:31:48;7.47;;;5.38;;
79543;SDS011;68994;47.176;7.534;2023-08-20T13:36:42;5.40;;;4.78;;
79543;SDS011;68994;47.176;7.534;2023-08-20T13:39:09;9.98;;;5.25;;
79543;SDS011;68994;47.176;7.534;2023-08-20T13:41:38;7.68;;;5.35;;
79543;SDS011;68994;47.176;7.534;2023-08-20T13:44:05;10.00;;;5.35;;
79543;SDS011;68994;47.176;7.534;2023-08-20T13:46:33;10.02;;;5.10;;
79543;SDS011;68994;47.176;7.534;2023-08-20T13:49:00;7.25;;;4.70;;
79543;SDS011;68994;47.176;7.534;2023-08-20T13:51:27;8.57;;;5.43;;
79543;SDS011;68994;47.176;7.534;2023-08-20T13:53:56;7.00;;;5.03;;
79543;SDS011;68994;47.176;7.534;2023-08-20T13:56:23;7.85;;;4.95;;
79543;SDS011;68994;47.176;7.534;2023-08-20T13:58:50;8.38;;;5.10;;
79543;SDS011;68994;47.176;7.534;2023-08-20T14:01:17;7.50;;;5.45;;
79543;SDS011;68994;47.176;7.534;2023-08-20T14:03:44;8.68;;;5.15;;
79543;SDS011;68994;47.176;7.534;2023-08-20T14:06:11;7.82;;;5.07;;
79543;SDS011;68994;47.176;7.534;2023-08-20T14:08:37;7.40;;;4.32;;
79543;SDS011;68994;47.176;7.534;2023-08-20T14:11:06;12.13;;;4.80;;
79543;SDS011;68994;47.176;7.534;2023-08-20T14:13:32;6.18;;;4.60;;
79543;SDS011;68994;47.176;7.534;2023-08-20T14:15:59;7.88;;;4.95;;
79543;SDS011;68994;47.176;7.534;2023-08-20T14:18:26;7.95;;;4.60;;
79543;SDS011;68994;47.176;7.534;2023-08-20T14:20:53;11.77;;;5.15;;
79543;SDS011;68994;47.176;7.534;2023-08-20T14:23:19;10.35;;;6.05;;
79543;SDS011;68994;47.176;7.534;2023-08-20T14:28:14;7.72;;;4.63;;
79543;SDS011;68994;47.176;7.534;2023-08-20T14:30:41;9.20;;;5.35;;
79543;SDS011;68994;47.176;7.534;2023-08-20T14:35:34;8.63;;;5.28;;
79543;SDS011;68994;47.176;7.534;2023-08-20T14:40:27;10.15;;;5.68;;
79543;SDS011;68994;47.176;7.534;2023-08-20T14:42:55;9.80;;;4.93;;
79543;SDS011;68994;47.176;7.534;2023-08-20T14:47:49;7.60;;;5.40;;
79543;SDS011;68994;47.176;7.534;2023-08-20T14:50:16;7.57;;;5.07;;
79543;SDS011;68994;47.176;7.534;2023-08-20T14:52:43;7.47;;;4.78;;
79543;SDS011;68994;47.176;7.534;2023-08-20T14:55:13;8.77;;;5.47;;
79543;SDS011;68994;47.176;7.534;2023-08-20T14:57:39;8.77;;;5.53;;
79543;SDS011;68994;47.176;7.534;2023-08-20T15:00:07;9.75;;;5.50;;
79543;SDS011;68994;47.176;7.534;2023-08-20T15:02:40;7.63;;;5.40;;
79543;SDS011;68994;47.176;7.534;2023-08-20T15:05:07;6.40;;;5.43;;
79543;SDS011;68994;47.176;7.534;2023-08-20T15:07:34;7.95;;;5.03;;
79543;SDS011;68994;47.176;7.534;2023-08-20T15:10:01;8.60;;;5.50;;
79543;SDS011;68994;47.176;7.534;2023-08-20T15:12:28;6.97;;;4.97;;
79543;SDS011;68994;47.176;7.534;2023-08-20T15:17:21;11.32;;;5.32;;